createdAt,value
2022-10-09T00:01:12.649Z,10.54
2022-10-09T00:03:41.946Z,10.45
2022-10-09T00:06:11.654Z,10.35
2022-10-09T00:08:40.242Z,10.26
2022-10-09T00:11:08.725Z,10.18
2022-10-09T00:13:36.637Z,10.14
2022-10-09T00:16:10.404Z,10.08
2022-10-09T00:18:37.592Z,10.04
2022-10-09T00:21:06.275Z,9.98
2022-10-09T00:23:33.338Z,9.97
2022-10-09T00:26:01.661Z,10.00
2022-10-09T00:28:35.340Z,10.02
2022-10-09T00:31:09.208Z,10.02
2022-10-09T00:33:37.133Z,9.93
2022-10-09T00:36:09.766Z,9.89
2022-10-09T00:38:36.920Z,9.86
2022-10-09T00:41:04.164Z,9.90
2022-10-09T00:43:55.788Z,10.07
2022-10-09T00:46:41.118Z,10.28
2022-10-09T00:49:13.486Z,10.45
2022-10-09T00:51:43.409Z,10.62
2022-10-09T00:54:13.586Z,10.73
2022-10-09T00:56:40.569Z,10.81
2022-10-09T00:59:08.176Z,10.87
2022-10-09T01:01:35.230Z,10.94
2022-10-09T01:04:02.126Z,10.96
2022-10-09T01:06:41.299Z,10.96
2022-10-09T01:09:20.076Z,10.86
2022-10-09T01:12:12.923Z,10.79
2022-10-09T01:14:51.915Z,10.62
2022-10-09T01:17:33.031Z,10.58
2022-10-09T01:20:02.777Z,10.56
2022-10-09T01:22:32.655Z,10.61
2022-10-09T01:25:06.873Z,10.62
2022-10-09T01:27:37.602Z,10.60
2022-10-09T01:30:09.214Z,10.58
2022-10-09T01:32:41.372Z,10.53
2022-10-09T01:35:11.146Z,10.55
2022-10-09T01:37:40.792Z,10.60
2022-10-09T01:40:09.330Z,10.63
2022-10-09T01:42:36.281Z,10.67
2022-10-09T01:45:03.632Z,10.78
2022-10-09T01:47:30.779Z,10.78
2022-10-09T01:50:23.214Z,10.78
2022-10-09T01:53:07.722Z,10.75
2022-10-09T01:56:03.649Z,10.73
2022-10-09T01:58:35.765Z,10.72
2022-10-09T02:01:15.717Z,10.71
2022-10-09T02:03:46.923Z,10.69
2022-10-09T02:06:16.258Z,10.73
2022-10-09T02:08:45.919Z,10.77
2022-10-09T02:11:17.438Z,10.81
2022-10-09T02:13:46.626Z,10.91
2022-10-09T02:16:29.433Z,11.06
2022-10-09T02:19:01.964Z,11.08
2022-10-09T02:21:54.509Z,11.21
2022-10-09T02:24:22.943Z,11.19
2022-10-09T02:26:53.159Z,11.16
2022-10-09T02:29:20.671Z,11.06
2022-10-09T02:31:47.721Z,10.94
2022-10-09T02:34:18.196Z,10.88
2022-10-09T02:36:46.633Z,10.83
2022-10-09T02:39:14.246Z,10.73
2022-10-09T02:41:41.177Z,10.70
2022-10-09T02:44:08.493Z,10.60
2022-10-09T02:46:35.702Z,10.56
2022-10-09T02:49:02.831Z,10.47
2022-10-09T02:51:29.777Z,10.45
2022-10-09T02:53:57.338Z,10.34
2022-10-09T02:56:24.380Z,10.38
2022-10-09T02:58:51.487Z,10.41
2022-10-09T03:01:19.120Z,10.42
2022-10-09T03:03:46.607Z,10.42
2022-10-09T03:06:16.490Z,10.41
2022-10-09T03:08:46.030Z,10.41
2022-10-09T03:11:15.268Z,10.42
2022-10-09T03:13:42.066Z,10.41
2022-10-09T03:16:11.874Z,10.40
2022-10-09T03:18:39.494Z,10.49
2022-10-09T03:21:08.028Z,10.48
2022-10-09T03:23:36.035Z,10.53
2022-10-09T03:26:06.678Z,10.63
2022-10-09T03:28:36.080Z,10.70
2022-10-09T03:31:03.663Z,10.82
2022-10-09T03:33:30.674Z,10.90
2022-10-09T03:35:57.622Z,10.95
2022-10-09T03:38:24.625Z,11.02
2022-10-09T03:40:51.620Z,11.14
2022-10-09T03:43:18.823Z,11.18
2022-10-09T03:45:45.706Z,11.22
2022-10-09T03:48:13.628Z,11.26
2022-10-09T03:50:41.655Z,11.29
2022-10-09T03:53:10.395Z,11.26
2022-10-09T03:55:37.647Z,11.36
2022-10-09T03:58:04.945Z,11.42
2022-10-09T16:08:50.975Z,11.79
2022-10-09T16:11:21.903Z,11.74
2022-10-09T16:13:52.385Z,11.70
2022-10-09T16:16:22.973Z,11.65
2022-10-09T16:18:49.917Z,11.63
2022-10-09T16:21:22.278Z,11.64
2022-10-09T16:23:53.288Z,11.53
2022-10-09T16:26:23.238Z,11.52
2022-10-09T16:28:51.931Z,11.50
2022-10-09T16:31:21.620Z,11.46
2022-10-09T16:33:48.725Z,11.38
2022-10-09T16:36:16.026Z,11.38
2022-10-09T16:38:42.881Z,11.38
2022-10-09T16:41:18.061Z,11.35
2022-10-09T16:43:47.101Z,11.34
2022-10-09T16:46:26.049Z,11.32
2022-10-09T16:48:55.216Z,11.25
2022-10-09T16:51:30.672Z,11.22
2022-10-09T16:54:00.189Z,11.10
2022-10-09T16:56:30.152Z,11.11
2022-10-09T16:59:00.007Z,10.95
2022-10-09T17:01:28.522Z,10.88
2022-10-09T17:04:00.153Z,10.81
2022-10-09T17:06:27.969Z,10.79
2022-10-09T17:08:57.764Z,10.75
2022-10-09T17:11:26.077Z,10.76
2022-10-09T17:13:56.898Z,10.73
2022-10-09T17:16:26.691Z,10.80
2022-10-09T17:18:54.865Z,10.81
2022-10-09T17:21:21.883Z,10.89
2022-10-09T17:23:52.706Z,10.93
2022-10-09T17:26:20.891Z,10.91
2022-10-09T17:28:48.761Z,10.85
2022-10-09T17:31:18.564Z,10.76
2022-10-09T17:33:48.503Z,10.66
2022-10-09T17:36:18.691Z,10.52
2022-10-09T17:38:46.500Z,10.45
2022-10-09T17:41:15.243Z,10.37
2022-10-09T17:43:42.392Z,10.28
2022-10-09T17:46:09.348Z,10.23
2022-10-09T17:48:39.455Z,10.18
2022-10-09T17:51:06.343Z,10.11
2022-10-09T17:53:33.295Z,10.07
2022-10-09T17:56:03.772Z,9.97
2022-10-09T17:58:31.067Z,9.92
2022-10-09T18:00:58.418Z,9.90
2022-10-09T18:03:25.334Z,9.79
2022-10-09T18:05:53.080Z,9.73
2022-10-09T18:08:20.396Z,9.64
2022-10-09T18:10:47.647Z,9.58
2022-10-09T18:13:15.007Z,9.50
2022-10-09T18:15:44.199Z,9.40
2022-10-09T18:18:11.848Z,9.30
2022-10-09T18:20:40.338Z,9.26
2022-10-09T18:23:09.032Z,9.23
2022-10-09T18:25:41.350Z,9.11
2022-10-09T18:28:08.526Z,8.95
2022-10-09T18:30:41.283Z,8.81
2022-10-09T18:33:08.233Z,8.75
2022-10-09T18:35:37.234Z,8.74
2022-10-09T18:38:04.941Z,8.58
2022-10-09T18:40:32.562Z,8.42
2022-10-09T18:42:59.534Z,8.25
2022-10-09T18:45:26.658Z,8.07
2022-10-09T18:47:53.886Z,7.88
2022-10-09T18:50:22.577Z,7.70
2022-10-09T18:52:49.877Z,7.61
2022-10-09T18:55:19.174Z,7.53
2022-10-09T18:57:47.531Z,7.54
2022-10-09T19:00:15.944Z,7.45
2022-10-09T19:02:43.200Z,7.34
2022-10-09T19:05:10.592Z,7.26
2022-10-09T19:07:38.243Z,7.17
2022-10-09T19:10:07.199Z,7.07
2022-10-09T19:12:34.767Z,6.98
2022-10-09T19:15:02.107Z,6.89
2022-10-09T19:17:29.205Z,6.78
2022-10-09T19:19:56.206Z,6.66
2022-10-09T19:22:24.143Z,6.56
2022-10-09T19:24:51.227Z,6.49
2022-10-09T19:27:18.257Z,6.40
2022-10-09T19:29:45.212Z,6.31
2022-10-09T19:32:12.578Z,6.21
2022-10-09T19:34:40.223Z,6.12
2022-10-09T19:37:07.905Z,6.02
2022-10-09T19:39:34.874Z,5.96
2022-10-09T19:42:02.400Z,5.89
2022-10-09T19:44:29.357Z,5.81
2022-10-09T19:46:56.641Z,5.71
2022-10-09T19:49:23.688Z,5.63
2022-10-09T19:51:50.944Z,5.55
2022-10-09T19:54:18.042Z,5.48
2022-10-09T19:56:45.341Z,5.43
2022-10-09T19:59:12.964Z,5.36
2022-10-09T20:01:40.662Z,5.31
2022-10-09T20:04:10.784Z,5.22
2022-10-09T20:06:40.300Z,5.13
2022-10-09T20:09:09.141Z,5.15
2022-10-09T20:11:36.751Z,5.11
2022-10-09T20:14:04.551Z,5.05
2022-10-09T20:16:33.707Z,5.00
2022-10-09T20:19:02.025Z,4.95
2022-10-09T20:21:30.667Z,4.91
2022-10-09T20:24:00.574Z,4.86
2022-10-09T20:26:28.499Z,4.80
2022-10-09T20:28:55.675Z,4.73
2022-10-09T20:31:25.619Z,4.77
2022-10-09T20:33:53.962Z,4.72
2022-10-09T20:36:33.583Z,4.64
2022-10-09T20:39:03.908Z,4.63
2022-10-09T20:41:31.627Z,4.59
2022-10-09T20:44:00.645Z,4.56
2022-10-09T20:46:30.224Z,4.50
2022-10-09T20:48:57.520Z,4.50
2022-10-09T20:51:25.286Z,4.43
2022-10-09T20:53:56.054Z,4.41
2022-10-09T20:56:24.663Z,4.45
2022-10-09T20:58:51.740Z,4.49
2022-10-09T21:01:19.716Z,4.48
2022-10-09T21:03:47.085Z,4.41
2022-10-09T21:06:16.946Z,4.31
2022-10-09T21:08:44.189Z,4.17
2022-10-09T21:11:13.901Z,4.13
2022-10-09T21:13:40.803Z,4.04
2022-10-09T21:16:10.771Z,4.00
2022-10-09T21:18:38.831Z,3.99
2022-10-09T21:21:17.146Z,4.00
2022-10-09T21:23:45.590Z,4.07
2022-10-09T21:26:17.127Z,4.09
2022-10-09T21:28:44.164Z,4.13
2022-10-09T21:31:23.573Z,4.00
2022-10-09T21:33:50.822Z,3.84
2022-10-09T21:36:25.811Z,3.76
2022-10-09T21:38:52.752Z,3.75
2022-10-09T21:41:19.547Z,3.71
2022-10-09T21:43:46.682Z,3.66
2022-10-09T21:46:14.866Z,3.58
2022-10-09T21:48:41.703Z,3.52
2022-10-09T21:51:08.708Z,3.47
2022-10-09T21:53:35.660Z,3.46
2022-10-09T21:56:04.349Z,3.45
2022-10-09T21:58:31.195Z,3.44
2022-10-09T22:01:00.406Z,3.42
2022-10-09T22:03:28.951Z,3.39
2022-10-09T22:05:55.951Z,3.40
2022-10-09T22:08:23.312Z,3.44
2022-10-09T22:10:50.730Z,3.45
2022-10-09T22:13:18.673Z,3.42
2022-10-09T22:15:50.167Z,3.36
2022-10-09T22:18:17.946Z,3.30
2022-10-09T22:20:47.443Z,3.25
2022-10-09T22:23:15.006Z,3.23
2022-10-09T22:25:42.049Z,3.19
2022-10-09T22:28:08.925Z,3.14
2022-10-09T22:30:35.788Z,3.08
2022-10-09T22:33:02.690Z,3.01
2022-10-09T22:35:29.479Z,2.98
2022-10-09T22:37:57.508Z,2.93
2022-10-09T22:40:24.847Z,2.90
2022-10-09T22:42:51.882Z,2.90
2022-10-09T22:45:19.155Z,2.95
2022-10-09T22:47:49.217Z,2.99
2022-10-09T22:50:16.055Z,2.96
2022-10-09T22:52:42.751Z,2.93
2022-10-09T22:55:09.844Z,2.91
2022-10-09T22:57:36.649Z,2.92
2022-10-09T23:00:05.175Z,2.95
2022-10-09T23:02:31.999Z,3.06
2022-10-09T23:04:58.860Z,3.03
2022-10-09T23:07:25.809Z,3.01
2022-10-09T23:09:52.706Z,3.00
2022-10-09T23:12:19.592Z,2.97
2022-10-09T23:14:46.413Z,2.93
2022-10-09T23:17:13.211Z,2.87
2022-10-09T23:19:40.014Z,2.82
2022-10-09T23:22:06.907Z,2.78
2022-10-09T23:24:33.752Z,2.75
2022-10-09T23:27:00.630Z,2.73
2022-10-09T23:29:27.432Z,2.72
2022-10-09T23:31:54.286Z,2.70
2022-10-09T23:34:21.337Z,2.66
2022-10-09T23:36:48.167Z,2.63
2022-10-09T23:39:15.169Z,2.58
2022-10-09T23:41:42.015Z,2.58
2022-10-09T23:44:08.965Z,2.54
2022-10-09T23:46:37.749Z,2.52
2022-10-09T23:49:05.448Z,2.49
2022-10-09T23:51:32.459Z,2.44
2022-10-09T23:54:00.269Z,2.42
2022-10-09T23:56:30.637Z,2.39
2022-10-09T23:58:59.068Z,2.34
